Time;durP1;ratioP1;P1;durP2;ratioP2;P2;SDS_P1;SDS_P2;PMS_P1;PMS_P2;Temp;Humidity;BMP_temperature;BMP_pressure;BME280_temperature;BME280_humidity;BME280_pressure;Samples;Min_cycle;Max_cycle;Signal;HPM_P1;HPM_P2
2022/09/05 00:02:37;;;;;;;1.80;1.70;;;22.10;99.90;;;;;;4940438;28;20452;-79
2022/09/05 00:05:29;;;;;;;2.07;1.57;;;22.20;99.90;;;;;;4953726;28;20452;-76
2022/09/05 00:08:04;;;;;;;1.87;1.77;;;22.00;99.90;;;;;;4941561;28;20476;-78
2022/09/05 00:10:42;;;;;;;2.03;1.63;;;22.00;99.90;;;;;;4950720;28;20482;-77
2022/09/05 00:13:35;;;;;;;1.80;1.70;;;22.00;99.90;;;;;;4950390;28;20452;-77
2022/09/05 00:16:27;;;;;;;1.63;1.53;;;22.00;99.90;;;;;;4952524;28;20554;-76
2022/09/05 00:19:09;;;;;;;2.70;1.43;;;21.90;99.90;;;;;;4950407;28;20463;-77
2022/09/05 00:22:08;;;;;;;1.40;1.30;;;21.90;99.90;;;;;;4948063;28;20567;-77
2022/09/05 00:25:08;;;;;;;2.23;1.90;;;21.90;99.90;;;;;;4944383;28;20550;-76
2022/09/05 00:28:05;;;;;;;4.33;1.50;;;21.90;99.90;;;;;;4945985;28;20523;-77
2022/09/05 00:31:09;;;;;;;1.80;1.67;;;21.80;99.90;;;;;;4954114;28;20479;-76
2022/09/05 00:34:09;;;;;;;3.40;1.40;;;21.80;99.90;;;;;;4952085;28;20543;-78
2022/09/05 00:36:43;;;;;;;2.80;1.53;;;21.80;99.90;;;;;;4946383;28;20511;-77
2022/09/05 00:39:17;;;;;;;2.57;1.70;;;21.80;99.90;;;;;;4950961;28;21453;-79
2022/09/05 00:41:49;;;;;;;2.13;2.00;;;21.80;99.90;;;;;;4956952;28;20455;-78
2022/09/05 00:44:20;;;;;;;1.60;1.50;;;21.80;99.90;;;;;;4953615;28;20495;-77
2022/09/05 00:46:56;;;;;;;2.30;2.00;;;21.70;99.90;;;;;;4953825;28;20573;-81
2022/09/05 00:49:31;;;;;;;1.80;1.70;;;21.80;99.90;;;;;;4956728;28;20490;-79
2022/09/05 00:52:04;;;;;;;3.30;2.10;;;21.70;99.90;;;;;;4950923;28;20460;-76
2022/09/05 00:54:50;;;;;;;1.80;1.70;;;21.70;99.90;;;;;;4959362;28;20463;-76
2022/09/05 00:58:06;;;;;;;1.57;1.47;;;21.80;99.90;;;;;;4952935;28;20476;-80
2022/09/05 01:00:48;;;;;;;2.87;1.60;;;21.80;99.90;;;;;;4909406;29;20928;-77
2022/09/05 01:03:37;;;;;;;2.40;2.00;;;21.80;99.90;;;;;;4947971;28;20500;-77
2022/09/05 01:06:25;;;;;;;1.80;1.70;;;21.80;99.90;;;;;;4955874;28;20483;-77
2022/09/05 01:09:14;;;;;;;1.97;1.87;;;21.70;99.90;;;;;;4953249;28;20485;-77
2022/09/05 01:12:05;;;;;;;1.57;1.47;;;21.70;99.90;;;;;;4951126;28;20671;-76
2022/09/05 01:14:54;;;;;;;1.90;1.70;;;21.70;99.90;;;;;;4957177;28;21018;-79
2022/09/05 01:17:35;;;;;;;1.97;1.87;;;21.60;99.90;;;;;;4954446;28;20537;-77
2022/09/05 01:20:24;;;;;;;1.57;1.47;;;21.60;99.90;;;;;;4946334;28;20523;-76
2022/09/05 01:23:11;;;;;;;1.63;1.37;;;21.60;99.90;;;;;;4952118;28;20461;-77
2022/09/05 01:26:01;;;;;;;1.90;1.80;;;21.50;99.90;;;;;;4953028;28;20460;-77
2022/09/05 01:28:39;;;;;;;1.90;1.80;;;21.50;99.90;;;;;;4948741;28;20945;-76
2022/09/05 01:31:36;;;;;;;1.33;1.13;;;21.50;99.90;;;;;;4956203;28;20575;-76
2022/09/05 01:34:12;;;;;;;1.30;1.20;;;21.40;99.90;;;;;;4955306;28;20467;-79
2022/09/05 01:36:55;;;;;;;1.60;1.50;;;21.50;99.90;;;;;;4944897;28;21003;-76
2022/09/05 01:39:35;;;;;;;1.60;1.40;;;21.40;99.90;;;;;;4958845;28;20457;-76
2022/09/05 01:42:37;;;;;;;1.93;1.40;;;21.50;99.90;;;;;;4952806;28;20451;-76
2022/09/05 01:45:11;;;;;;;1.40;1.30;;;21.40;99.90;;;;;;4947780;28;20519;-77
2022/09/05 01:47:50;;;;;;;1.57;1.47;;;21.40;99.90;;;;;;4956973;28;20480;-76
2022/09/05 01:50:35;;;;;;;1.50;1.40;;;21.30;99.90;;;;;;4954051;28;20481;-77
2022/09/05 01:53:15;;;;;;;1.40;1.30;;;21.30;99.90;;;;;;4946747;28;21046;-80
2022/09/05 01:56:10;;;;;;;1.80;1.70;;;21.30;99.90;;;;;;4964403;28;20471;-76
2022/09/05 01:58:51;;;;;;;1.70;1.60;;;21.20;99.90;;;;;;4947047;28;20779;-75
2022/09/05 02:01:28;;;;;;;3.43;1.53;;;21.20;99.90;;;;;;4953158;28;20530;-79
2022/09/05 02:04:17;;;;;;;2.43;1.67;;;21.20;99.90;;;;;;4948205;28;20473;-76
2022/09/05 02:06:55;;;;;;;1.57;1.47;;;21.20;99.90;;;;;;4949207;28;20839;-77
2022/09/05 02:10:05;;;;;;;1.70;1.60;;;21.20;99.90;;;;;;4950128;28;20590;-78
2022/09/05 02:12:40;;;;;;;4.53;3.37;;;21.20;99.90;;;;;;4958607;28;20456;-76
2022/09/05 02:15:15;;;;;;;3.67;2.47;;;21.20;99.90;;;;;;4945935;28;20452;-78
2022/09/05 02:17:51;;;;;;;2.40;2.20;;;21.20;99.90;;;;;;4949155;28;20741;-79
2022/09/05 02:20:26;;;;;;;2.37;1.90;;;21.20;99.90;;;;;;4951741;28;20459;-77
2022/09/05 02:23:03;;;;;;;2.07;1.70;;;21.20;99.90;;;;;;4951901;28;20450;-80
2022/09/05 02:25:58;;;;;;;1.93;1.83;;;21.20;99.90;;;;;;4949910;28;20534;-76
2022/09/05 02:28:36;;;;;;;3.13;1.80;;;21.20;99.90;;;;;;4946289;28;20451;-77
2022/09/05 02:31:13;;;;;;;1.50;1.40;;;21.10;99.90;;;;;;4948842;28;20459;-78
2022/09/05 02:33:55;;;;;;;1.60;1.50;;;21.10;99.90;;;;;;4955907;28;20505;-77
2022/09/05 02:36:38;;;;;;;4.33;1.87;;;21.10;99.90;;;;;;4947344;28;20481;-76
2022/09/05 02:39:15;;;;;;;1.50;1.40;;;21.10;99.90;;;;;;4944999;28;20464;-77
2022/09/05 02:42:14;;;;;;;1.50;1.40;;;21.10;99.90;;;;;;4948524;28;21043;-79
2022/09/05 02:45:26;;;;;;;1.53;1.43;;;21.00;99.90;;;;;;4948651;28;20513;-77
2022/09/05 02:48:05;;;;;;;3.10;1.80;;;21.00;99.90;;;;;;4947288;28;20495;-80
2022/09/05 02:50:55;;;;;;;2.00;1.70;;;20.90;99.90;;;;;;4949890;28;20538;-78
2022/09/05 02:53:49;;;;;;;2.37;1.93;;;20.90;99.90;;;;;;4952537;28;20546;-79
2022/09/05 02:56:52;;;;;;;1.50;1.40;;;20.90;99.90;;;;;;4951241;28;20510;-76
2022/09/05 02:59:52;;;;;;;2.40;1.50;;;20.80;99.90;;;;;;4949195;28;20451;-79
2022/09/05 03:02:28;;;;;;;1.53;1.20;;;20.80;99.90;;;;;;4943559;28;20461;-78
2022/09/05 03:05:02;;;;;;;1.60;1.50;;;20.80;99.90;;;;;;4950120;28;20463;-80
2022/09/05 03:08:06;;;;;;;3.13;1.63;;;20.80;99.90;;;;;;4948355;28;20543;-81
2022/09/05 03:11:03;;;;;;;1.70;1.50;;;20.80;99.90;;;;;;4938846;28;20457;-77
2022/09/05 03:14:01;;;;;;;2.40;2.07;;;20.70;99.90;;;;;;4945969;28;20460;-77
2022/09/05 03:17:03;;;;;;;1.53;1.43;;;20.70;99.90;;;;;;4948995;28;20488;-78
2022/09/05 03:20:07;;;;;;;2.50;1.70;;;20.70;99.90;;;;;;4914516;28;20978;-77
2022/09/05 03:23:26;;;;;;;1.97;1.80;;;20.60;99.90;;;;;;4938764;28;20461;-79
2022/09/05 03:26:35;;;;;;;2.13;1.93;;;20.60;99.90;;;;;;4963270;28;20487;-78
2022/09/05 03:29:34;;;;;;;1.50;1.40;;;20.60;99.90;;;;;;4951392;28;20455;-79
2022/09/05 03:32:47;;;;;;;1.43;1.33;;;20.60;99.90;;;;;;4943745;28;20482;-78
2022/09/05 03:36:16;;;;;;;1.77;1.67;;;20.60;99.90;;;;;;4946250;28;20814;-79
2022/09/05 03:39:33;;;;;;;1.40;1.30;;;20.60;99.90;;;;;;4921686;28;20467;-78
2022/09/05 03:42:41;;;;;;;1.60;1.50;;;20.60;99.90;;;;;;4949332;28;20452;-79
2022/09/05 03:45:34;;;;;;;2.10;1.77;;;20.60;99.90;;;;;;4950241;28;20444;-78
2022/09/05 03:48:27;;;;;;;1.97;1.50;;;20.60;99.90;;;;;;4952937;28;20447;-78
2022/09/05 03:51:07;;;;;;;1.30;1.20;;;20.60;99.90;;;;;;4946395;28;20483;-78
2022/09/05 03:54:23;;;;;;;1.30;1.20;;;20.60;99.90;;;;;;4954769;28;20485;-77
2022/09/05 03:57:43;;;;;;;1.90;1.70;;;20.60;99.90;;;;;;4938602;28;20526;-79
2022/09/05 04:00:20;;;;;;;2.07;1.97;;;20.50;99.90;;;;;;4949891;28;21034;-78
2022/09/05 04:03:05;;;;;;;2.27;2.07;;;20.60;99.90;;;;;;4947675;28;21014;-79
2022/09/05 04:06:03;;;;;;;2.00;1.40;;;21.00;99.90;;;;;;4944599;28;20451;-77
2022/09/05 04:09:01;;;;;;;1.60;1.37;;;20.50;99.90;;;;;;4944852;28;20546;-74
2022/09/05 04:11:36;;;;;;;1.60;1.50;;;20.50;99.90;;;;;;4947749;28;20480;-78
2022/09/05 04:14:10;;;;;;;1.70;1.60;;;20.50;99.90;;;;;;4946345;28;20467;-78
2022/09/05 04:16:49;;;;;;;1.43;1.33;;;20.60;99.90;;;;;;4946979;28;20475;-77
2022/09/05 04:19:26;;;;;;;2.07;1.40;;;20.60;99.90;;;;;;4949066;28;20854;-79
2022/09/05 04:22:02;;;;;;;1.50;1.40;;;20.50;99.90;;;;;;4950201;28;20466;-77
2022/09/05 04:24:42;;;;;;;1.60;1.50;;;20.60;99.90;;;;;;4946647;28;20472;-76
2022/09/05 04:27:27;;;;;;;1.63;1.50;;;20.50;99.90;;;;;;4943319;28;20484;-78
2022/09/05 04:30:01;;;;;;;1.70;1.60;;;20.50;99.90;;;;;;4951544;28;20483;-78
2022/09/05 04:32:57;;;;;;;1.60;1.50;;;20.40;99.90;;;;;;4948340;28;20494;-77
2022/09/05 04:35:32;;;;;;;1.57;1.47;;;20.40;99.90;;;;;;4946691;28;20474;-78
2022/09/05 04:38:10;;;;;;;2.73;1.80;;;20.40;99.90;;;;;;4951300;28;20448;-81
2022/09/05 04:40:42;;;;;;;1.97;1.87;;;20.40;99.90;;;;;;4950628;28;20503;-77
2022/09/05 04:43:18;;;;;;;1.67;1.57;;;20.40;99.90;;;;;;4943919;28;20461;-80
2022/09/05 04:45:53;;;;;;;3.43;1.73;;;20.40;99.90;;;;;;4952455;28;20451;-80
2022/09/05 04:48:26;;;;;;;1.90;1.80;;;20.40;99.90;;;;;;4953564;28;20494;-77
2022/09/05 04:51:05;;;;;;;1.40;1.30;;;20.40;99.90;;;;;;4950742;28;20521;-79
2022/09/05 04:53:59;;;;;;;1.70;1.60;;;20.40;99.90;;;;;;4947407;28;20469;-78
2022/09/05 04:56:32;;;;;;;2.70;1.70;;;20.40;99.90;;;;;;4943286;28;20476;-77
2022/09/05 04:59:04;;;;;;;1.50;1.40;;;20.40;99.90;;;;;;4949961;28;20475;-79
2022/09/05 05:01:58;;;;;;;1.63;1.53;;;20.50;99.90;;;;;;4948163;28;20550;-76
2022/09/05 05:04:47;;;;;;;2.90;1.70;;;20.40;99.90;;;;;;4948563;28;20460;-79
2022/09/05 05:07:45;;;;;;;1.80;1.50;;;20.40;99.90;;;;;;4949440;28;20571;-79
2022/09/05 05:10:24;;;;;;;3.77;1.50;;;20.40;99.90;;;;;;4940582;28;20485;-79
2022/09/05 05:13:22;;;;;;;1.83;1.73;;;20.40;99.90;;;;;;4939121;28;20586;-80
2022/09/05 05:16:14;;;;;;;2.57;1.70;;;20.40;99.90;;;;;;4945569;28;20484;-78
2022/09/05 05:19:09;;;;;;;2.43;1.90;;;20.40;99.90;;;;;;4948048;28;20451;-82
2022/09/05 05:21:51;;;;;;;2.33;2.17;;;20.40;99.90;;;;;;4949372;28;21058;-80
2022/09/05 05:24:24;;;;;;;1.70;1.60;;;20.30;99.90;;;;;;4955148;28;20475;-79
2022/09/05 05:27:01;;;;;;;1.87;1.70;;;20.40;99.90;;;;;;4957382;28;20485;-81
2022/09/05 05:29:39;;;;;;;4.63;1.70;;;20.40;99.90;;;;;;4954780;28;21128;-80
2022/09/05 05:32:08;;;;;;;2.50;1.63;;;20.40;99.90;;;;;;4945054;28;20491;-79
2022/09/05 05:34:45;;;;;;;1.70;1.57;;;20.40;99.90;;;;;;4946725;28;20548;-77
2022/09/05 05:37:18;;;;;;;1.80;1.70;;;20.40;99.90;;;;;;4954336;28;20482;-78
2022/09/05 05:39:51;;;;;;;1.80;1.70;;;20.40;99.90;;;;;;4950994;28;20452;-79
2022/09/05 05:42:23;;;;;;;2.00;1.80;;;20.40;99.90;;;;;;4964580;28;20455;-79
2022/09/05 05:44:53;;;;;;;2.10;1.87;;;20.50;99.90;;;;;;4945669;28;20463;-79
2022/09/05 05:47:29;;;;;;;1.50;1.40;;;20.50;99.90;;;;;;4949965;28;20483;-79
2022/09/05 05:50:04;;;;;;;2.30;1.70;;;20.40;99.90;;;;;;4950351;28;20489;-80
2022/09/05 05:53:09;;;;;;;3.43;2.10;;;20.50;99.90;;;;;;4936230;28;20504;-79
2022/09/05 05:56:07;;;;;;;2.80;2.07;;;20.50;99.90;;;;;;4946433;28;20463;-81
2022/09/05 05:58:52;;;;;;;2.53;2.00;;;20.60;99.90;;;;;;4951310;28;20485;-79
2022/09/05 06:02:05;;;;;;;2.30;1.70;;;20.60;99.90;;;;;;4949600;28;20499;-79
2022/09/05 06:05:03;;;;;;;2.83;1.67;;;20.70;99.90;;;;;;4949571;28;20516;-79
2022/09/05 06:07:42;;;;;;;2.27;1.97;;;20.70;99.90;;;;;;4942100;28;20506;-78
2022/09/05 06:11:15;;;;;;;2.20;1.87;;;20.80;99.90;;;;;;4954551;28;20893;-80
2022/09/05 06:14:59;;;;;;;2.33;2.03;;;20.80;99.90;;;;;;4946778;29;20539;-79
2022/09/05 06:18:17;;;;;;;2.13;1.90;;;20.90;99.90;;;;;;4880644;29;20491;-81
2022/09/05 06:21:22;;;;;;;1.90;1.80;;;20.90;99.90;;;;;;4881595;29;20466;-78
2022/09/05 06:25:04;;;;;;;2.50;2.30;;;21.00;99.90;;;;;;4949012;29;20588;-77
2022/09/05 06:28:09;;;;;;;2.13;1.93;;;21.10;99.90;;;;;;4948809;28;20489;-78
2022/09/05 06:30:58;;;;;;;2.73;2.00;;;21.20;99.90;;;;;;4944597;29;20511;-78
2022/09/05 06:34:03;;;;;;;2.03;1.83;;;21.20;99.90;;;;;;4933749;29;20491;-79
2022/09/05 06:36:47;;;;;;;4.10;1.90;;;21.30;99.90;;;;;;4946121;28;20534;-79
2022/09/05 06:39:23;;;;;;;13.90;3.83;;;21.30;99.90;;;;;;4941318;29;20460;-79
2022/09/05 06:42:24;;;;;;;2.90;1.67;;;21.40;99.90;;;;;;4933245;29;20890;-76
2022/09/05 06:45:38;;;;;;;2.03;1.83;;;21.50;99.90;;;;;;4944881;29;20456;-77
2022/09/05 06:48:13;;;;;;;2.23;2.13;;;21.50;99.90;;;;;;4948366;28;20828;-78
2022/09/05 06:51:38;;;;;;;3.03;2.17;;;21.60;99.90;;;;;;4941907;28;20989;-77
2022/09/05 06:54:36;;;;;;;2.17;1.87;;;21.60;99.90;;;;;;4899910;29;20503;-76
2022/09/05 06:57:32;;;;;;;2.20;1.60;;;21.60;99.90;;;;;;4933966;28;20485;-79
2022/09/05 07:00:22;;;;;;;2.17;2.07;;;21.70;99.90;;;;;;4940379;29;20492;-79
2022/09/05 07:03:20;;;;;;;2.17;2.07;;;21.70;99.90;;;;;;4943082;28;20536;-79
2022/09/05 07:05:56;;;;;;;1.63;1.50;;;21.80;99.90;;;;;;4930454;29;20511;-78
2022/09/05 07:08:30;;;;;;;3.60;1.50;;;21.80;99.90;;;;;;4932537;29;20464;-78
2022/09/05 07:11:09;;;;;;;2.23;2.03;;;21.80;99.90;;;;;;4947587;29;20494;-77
2022/09/05 07:13:54;;;;;;;1.70;1.60;;;21.80;99.90;;;;;;4936925;29;20484;-77
2022/09/05 07:16:38;;;;;;;1.80;1.70;;;21.90;99.90;;;;;;4938902;28;20775;-79
2022/09/05 07:19:28;;;;;;;1.73;1.63;;;21.90;99.90;;;;;;4950768;28;20460;-78
2022/09/05 07:22:20;;;;;;;2.20;1.80;;;21.90;99.90;;;;;;4946826;28;20527;-76
2022/09/05 07:25:12;;;;;;;1.60;1.50;;;21.90;99.90;;;;;;4931627;29;20463;-77
2022/09/05 07:27:51;;;;;;;3.00;2.00;;;22.00;99.90;;;;;;4932279;29;20496;-79
2022/09/05 07:30:47;;;;;;;1.97;1.70;;;22.10;99.90;;;;;;4946186;29;20511;-79
2022/09/05 07:33:19;;;;;;;1.60;1.50;;;22.10;99.90;;;;;;4937058;29;20929;-76
2022/09/05 07:35:50;;;;;;;2.00;1.80;;;22.20;99.90;;;;;;4945429;28;20694;-76
2022/09/05 07:38:23;;;;;;;2.47;1.70;;;22.10;99.90;;;;;;4952549;28;20461;-76
2022/09/05 07:41:19;;;;;;;3.80;1.80;;;22.20;99.90;;;;;;4946857;28;20452;-76
2022/09/05 07:43:49;;;;;;;2.17;1.97;;;22.30;99.90;;;;;;4976104;28;20533;-77
2022/09/05 07:46:22;;;;;;;2.10;1.70;;;22.30;99.90;;;;;;4949360;28;20496;-76
2022/09/05 07:48:54;;;;;;;5.17;2.57;;;22.40;99.90;;;;;;4931712;29;20767;-77
2022/09/05 07:51:25;;;;;;;4.60;1.70;;;22.50;99.90;;;;;;4947126;29;20464;-79
2022/09/05 07:54:19;;;;;;;1.90;1.80;;;22.50;99.90;;;;;;4938603;29;20855;-77
2022/09/05 07:57:10;;;;;;;1.60;1.50;;;22.60;99.90;;;;;;4939473;29;20481;-76
2022/09/05 08:00:04;;;;;;;2.80;1.60;;;22.70;99.90;;;;;;4943513;28;20517;-77
2022/09/05 08:02:34;;;;;;;2.67;1.60;;;22.80;99.90;;;;;;4941979;29;21195;-77
2022/09/05 08:05:04;;;;;;;1.50;1.40;;;22.90;99.90;;;;;;4940899;29;20443;-76
2022/09/05 08:07:37;;;;;;;2.27;2.10;;;23.00;99.90;;;;;;4940728;28;20470;-77
2022/09/05 08:10:23;;;;;;;1.83;1.70;;;23.10;99.90;;;;;;4944731;28;20993;-77
2022/09/05 08:13:14;;;;;;;1.50;1.40;;;23.20;99.90;;;;;;4950086;29;20510;-78
2022/09/05 08:15:56;;;;;;;1.60;1.50;;;23.30;99.90;;;;;;4950239;28;20853;-77
2022/09/05 08:18:44;;;;;;;1.50;1.30;;;23.30;99.90;;;;;;4947925;28;20479;-78
2022/09/05 08:21:21;;;;;;;1.67;1.57;;;23.40;99.90;;;;;;4939674;28;20545;-78
2022/09/05 08:24:02;;;;;;;2.00;1.83;;;23.40;99.90;;;;;;4935536;28;21040;-78
2022/09/05 08:26:44;;;;;;;1.97;1.83;;;23.50;99.90;;;;;;4940376;29;20490;-78
2022/09/05 08:29:25;;;;;;;1.67;1.57;;;23.50;99.90;;;;;;4934390;29;20502;-79
2022/09/05 08:32:01;;;;;;;2.13;1.33;;;23.60;99.90;;;;;;4931347;29;21067;-77
2022/09/05 08:34:38;;;;;;;1.90;1.77;;;23.60;99.90;;;;;;4947362;28;20615;-77
2022/09/05 08:37:15;;;;;;;1.57;1.47;;;23.80;99.90;;;;;;4944330;28;20781;-76
2022/09/05 08:39:51;;;;;;;2.53;1.70;;;23.80;99.90;;;;;;4942562;28;20465;-79
2022/09/05 08:42:48;;;;;;;2.10;2.00;;;23.90;99.90;;;;;;4948585;28;20460;-76
2022/09/05 08:45:40;;;;;;;1.60;1.40;;;23.90;99.90;;;;;;4950901;28;20551;-76
2022/09/05 08:48:53;;;;;;;3.07;1.80;;;24.00;99.90;;;;;;4946391;28;20550;-78
2022/09/05 08:51:35;;;;;;;1.43;1.33;;;24.00;99.90;;;;;;4953331;28;20814;-78
2022/09/05 08:54:26;;;;;;;3.57;1.67;;;24.00;99.90;;;;;;4950613;29;20479;-77
2022/09/05 08:57:01;;;;;;;1.50;1.30;;;24.10;99.90;;;;;;4958611;28;20482;-78
2022/09/05 08:59:42;;;;;;;1.40;1.30;;;24.10;99.90;;;;;;4944188;28;20463;-78
2022/09/05 09:03:00;;;;;;;1.73;1.63;;;24.20;99.90;;;;;;4943548;29;20492;-78
2022/09/05 09:06:02;;;;;;;1.60;1.50;;;24.20;99.90;;;;;;4934193;29;20457;-76
2022/09/05 09:08:59;;;;;;;1.87;1.60;;;24.20;99.90;;;;;;4934687;29;20449;-77
2022/09/05 09:11:36;;;;;;;1.50;1.40;;;24.30;99.90;;;;;;4941973;28;20539;-79
2022/09/05 09:14:32;;;;;;;1.70;1.60;;;24.40;99.90;;;;;;4951054;29;20472;-77
2022/09/05 09:17:17;;;;;;;1.80;1.70;;;24.50;99.90;;;;;;4941378;29;21003;-79
2022/09/05 09:19:50;;;;;;;1.50;1.40;;;24.50;99.90;;;;;;4933674;29;20528;-79
2022/09/05 09:22:33;;;;;;;1.60;1.50;;;24.50;99.90;;;;;;4934098;29;20464;-78
2022/09/05 09:25:08;;;;;;;1.60;1.50;;;24.60;99.90;;;;;;4950824;28;20513;-78
2022/09/05 09:28:15;;;;;;;1.53;1.43;;;24.70;99.90;;;;;;4955042;28;20507;-78
2022/09/05 09:31:09;;;;;;;2.20;1.53;;;24.70;99.90;;;;;;4932905;28;20487;-78
2022/09/05 09:33:43;;;;;;;1.57;1.47;;;24.80;99.90;;;;;;4953905;28;20502;-77
2022/09/05 09:36:28;;;;;;;1.57;1.40;;;24.80;99.90;;;;;;4944321;28;21219;-78
2022/09/05 09:39:17;;;;;;;1.80;1.70;;;24.80;99.90;;;;;;4951374;28;20487;-77
2022/09/05 09:42:18;;;;;;;1.93;1.83;;;24.80;99.90;;;;;;4953748;28;20511;-80
2022/09/05 09:45:24;;;;;;;1.63;1.53;;;24.80;99.90;;;;;;4945706;28;20463;-78
2022/09/05 09:48:38;;;;;;;1.80;1.70;;;24.90;99.90;;;;;;4955191;28;20555;-79
2022/09/05 09:51:33;;;;;;;1.60;1.50;;;25.00;99.90;;;;;;4944920;28;20493;-80
2022/09/05 09:54:17;;;;;;;1.73;1.63;;;25.10;99.90;;;;;;4951449;28;20849;-79
2022/09/05 09:57:18;;;;;;;1.70;1.60;;;25.10;99.90;;;;;;4955845;28;20480;-78
2022/09/05 10:00:04;;;;;;;1.80;1.70;;;25.20;99.90;;;;;;4933363;28;21053;-78
2022/09/05 10:02:48;;;;;;;1.37;1.27;;;25.20;99.90;;;;;;4952391;28;20452;-79
2022/09/05 10:06:11;;;;;;;1.40;1.30;;;25.20;99.90;;;;;;4945850;28;20487;-79
2022/09/05 10:09:14;;;;;;;1.67;1.57;;;25.30;99.90;;;;;;4956332;28;20447;-77
2022/09/05 10:12:44;;;;;;;1.87;1.67;;;25.30;99.90;;;;;;4955282;28;20459;-78
2022/09/05 10:15:25;;;;;;;1.60;1.47;;;25.30;99.90;;;;;;4950113;28;20471;-79
2022/09/05 10:18:25;;;;;;;1.40;1.30;;;25.40;99.90;;;;;;4958258;28;20469;-77
2022/09/05 10:21:14;;;;;;;1.63;1.47;;;25.40;99.90;;;;;;4951599;28;20462;-78
2022/09/05 10:24:17;;;;;;;1.90;1.60;;;25.50;99.90;;;;;;4949049;28;20460;-78
2022/09/05 10:27:20;;;;;;;1.50;1.40;;;25.50;99.90;;;;;;4950529;28;20574;-78
2022/09/05 10:30:10;;;;;;;1.40;1.30;;;25.50;99.90;;;;;;4951079;28;20458;-78
2022/09/05 10:32:52;;;;;;;3.60;1.60;;;25.50;99.90;;;;;;4940132;28;20480;-77
2022/09/05 10:35:43;;;;;;;1.50;1.40;;;25.60;99.90;;;;;;4949101;28;20487;-79
2022/09/05 10:38:14;;;;;;;2.00;1.40;;;25.70;99.90;;;;;;4950067;28;20823;-76
2022/09/05 10:40:45;;;;;;;1.87;1.77;;;25.70;99.90;;;;;;4949810;28;20464;-79
2022/09/05 10:43:41;;;;;;;2.47;2.27;;;25.60;99.90;;;;;;4955552;28;20448;-77
2022/09/05 10:46:22;;;;;;;1.93;1.77;;;25.80;99.90;;;;;;4943887;28;20463;-77
2022/09/05 10:49:15;;;;;;;1.40;1.30;;;25.80;99.90;;;;;;4946946;28;20900;-77
2022/09/05 10:51:49;;;;;;;1.67;1.57;;;25.70;99.90;;;;;;4957666;28;20448;-77
2022/09/05 10:54:44;;;;;;;1.30;1.20;;;25.70;99.90;;;;;;4952310;28;20457;-78
2022/09/05 10:57:28;;;;;;;1.67;1.57;;;25.70;99.90;;;;;;4946804;28;20509;-81
2022/09/05 11:00:25;;;;;;;1.40;1.30;;;25.70;99.90;;;;;;4938477;28;20465;-76
2022/09/05 11:03:21;;;;;;;1.40;1.30;;;25.80;99.90;;;;;;4942254;28;20456;-76
2022/09/05 11:05:57;;;;;;;1.77;1.50;;;25.80;99.90;;;;;;4942880;28;20604;-79
2022/09/05 11:08:42;;;;;;;1.60;1.50;;;25.80;99.90;;;;;;4945351;28;20464;-77
2022/09/05 11:11:15;;;;;;;1.43;1.33;;;25.90;99.90;;;;;;4946138;28;20491;-78
2022/09/05 11:14:11;;;;;;;1.40;1.30;;;25.90;99.90;;;;;;4950163;28;20468;-78
2022/09/05 11:17:00;;;;;;;2.00;1.40;;;25.90;99.90;;;;;;4947683;28;20515;-77
2022/09/05 11:19:35;;;;;;;1.40;1.17;;;25.90;99.90;;;;;;4941755;28;20455;-77
2022/09/05 11:22:06;;;;;;;1.37;1.27;;;26.00;99.90;;;;;;4946639;28;20494;-77
2022/09/05 11:24:55;;;;;;;1.40;1.30;;;26.00;99.90;;;;;;4954975;28;20527;-78
2022/09/05 11:27:31;;;;;;;1.80;1.70;;;26.00;99.90;;;;;;4933044;28;21051;-76
2022/09/05 11:30:05;;;;;;;1.97;1.87;;;26.00;99.90;;;;;;4951452;28;20502;-78
2022/09/05 11:33:04;;;;;;;1.53;1.33;;;26.00;99.90;;;;;;4954621;28;20468;-77
2022/09/05 11:35:57;;;;;;;1.47;1.37;;;26.10;99.90;;;;;;4951365;28;20519;-80
2022/09/05 11:39:06;;;;;;;1.30;1.20;;;26.10;99.90;;;;;;4943366;28;20473;-78
2022/09/05 11:42:14;;;;;;;1.70;1.60;;;26.20;99.90;;;;;;4953735;28;20523;-77
2022/09/05 11:45:24;;;;;;;1.40;1.30;;;26.20;99.90;;;;;;4955236;28;20465;-77
2022/09/05 11:48:39;;;;;;;3.07;2.77;;;26.20;99.90;;;;;;4952566;28;20469;-75
2022/09/05 11:51:51;;;;;;;1.70;1.23;;;26.30;99.90;;;;;;4886126;29;20497;-78
2022/09/05 11:55:04;;;;;;;2.97;1.23;;;26.30;99.90;;;;;;4916556;29;20603;-80
2022/09/05 11:58:06;;;;;;;1.37;1.20;;;26.40;99.90;;;;;;4921028;28;20474;-80
2022/09/05 12:01:05;;;;;;;1.50;1.37;;;26.30;99.90;;;;;;4950279;28;20456;-77
2022/09/05 12:04:28;;;;;;;1.50;1.40;;;26.40;99.90;;;;;;4948605;28;20526;-78
2022/09/05 12:07:17;;;;;;;1.43;1.33;;;26.40;99.90;;;;;;4943576;28;20635;-78
2022/09/05 12:10:17;;;;;;;1.33;1.23;;;26.40;99.90;;;;;;4951576;28;20474;-77
2022/09/05 12:13:30;;;;;;;1.30;1.13;;;26.30;99.90;;;;;;4948600;28;20960;-79
2022/09/05 12:15:59;;;;;;;1.83;1.73;;;26.20;99.90;;;;;;4950167;28;20482;-78
2022/09/05 12:18:47;;;;;;;1.30;1.20;;;26.20;99.90;;;;;;4954307;28;20563;-78
2022/09/05 12:21:29;;;;;;;1.20;1.10;;;26.20;99.90;;;;;;4949673;28;20525;-77
2022/09/05 12:24:04;;;;;;;2.13;1.33;;;26.20;99.90;;;;;;4956791;28;20454;-78
2022/09/05 12:27:00;;;;;;;1.00;1.00;;;26.20;99.90;;;;;;4958147;28;20477;-79
2022/09/05 12:29:53;;;;;;;3.87;2.07;;;26.20;99.90;;;;;;4954316;28;20555;-78
2022/09/05 12:32:27;;;;;;;1.47;1.37;;;26.20;99.90;;;;;;4953124;28;20465;-78
2022/09/05 12:35:24;;;;;;;1.60;1.50;;;26.10;99.90;;;;;;4953353;28;21263;-78
2022/09/05 12:38:27;;;;;;;1.37;1.27;;;26.20;99.90;;;;;;4950973;28;20455;-79
2022/09/05 12:41:19;;;;;;;1.83;1.20;;;26.30;99.90;;;;;;4956356;28;20943;-79
2022/09/05 12:44:29;;;;;;;1.50;1.40;;;26.30;99.90;;;;;;4954108;28;20941;-78
2022/09/05 12:47:12;;;;;;;1.30;1.20;;;26.40;99.90;;;;;;4952616;28;20470;-78
2022/09/05 12:49:57;;;;;;;1.57;1.30;;;26.40;99.90;;;;;;4950881;28;20465;-80
2022/09/05 12:52:43;;;;;;;1.43;1.27;;;26.50;99.90;;;;;;4949198;28;20461;-78
2022/09/05 12:55:24;;;;;;;1.33;1.23;;;26.60;99.90;;;;;;4960334;28;20514;-79
2022/09/05 12:57:58;;;;;;;1.30;1.20;;;26.70;99.90;;;;;;4955425;28;20502;-79
2022/09/05 13:00:49;;;;;;;1.20;1.20;;;26.60;99.90;;;;;;4958423;28;20483;-79
2022/09/05 13:03:46;;;;;;;1.40;1.30;;;26.70;99.90;;;;;;4951428;28;20456;-78
2022/09/05 13:06:38;;;;;;;1.30;1.00;;;26.70;99.90;;;;;;4946578;28;20552;-79
2022/09/05 13:09:10;;;;;;;1.20;1.10;;;26.70;99.90;;;;;;4950663;28;21050;-78
2022/09/05 13:11:48;;;;;;;1.93;1.73;;;26.70;99.90;;;;;;4956738;28;20460;-78
2022/09/05 13:14:52;;;;;;;1.47;1.37;;;26.70;99.90;;;;;;4945934;28;20452;-77
2022/09/05 13:17:46;;;;;;;1.50;1.40;;;26.70;99.90;;;;;;4951183;28;20543;-78
2022/09/05 13:20:18;;;;;;;1.30;1.20;;;26.70;99.90;;;;;;4946931;28;20454;-78
2022/09/05 13:22:49;;;;;;;1.33;1.23;;;26.80;99.90;;;;;;4946632;28;20453;-76
2022/09/05 13:25:25;;;;;;;1.20;1.10;;;26.80;99.90;;;;;;4942412;28;21083;-79
2022/09/05 13:28:00;;;;;;;2.57;1.23;;;26.80;99.90;;;;;;4951989;28;20475;-77
2022/09/05 13:30:30;;;;;;;4.03;1.70;;;26.90;99.90;;;;;;4942386;28;20471;-79
2022/09/05 13:33:23;;;;;;;1.67;1.40;;;26.80;99.90;;;;;;4944103;28;20492;-78
2022/09/05 13:36:17;;;;;;;1.60;1.50;;;26.90;99.90;;;;;;4938144;28;20525;-79
2022/09/05 13:39:10;;;;;;;1.40;1.30;;;27.00;99.90;;;;;;4947768;28;20460;-81
2022/09/05 13:41:43;;;;;;;1.83;1.40;;;27.00;99.90;;;;;;4945117;28;20455;-80
2022/09/05 13:44:17;;;;;;;1.60;1.50;;;27.00;99.90;;;;;;4940611;28;20540;-80
2022/09/05 13:47:00;;;;;;;1.70;1.60;;;27.00;99.90;;;;;;4947392;28;20579;-79
2022/09/05 13:49:43;;;;;;;1.30;1.20;;;27.00;99.90;;;;;;4941773;28;20482;-79
2022/09/05 13:52:27;;;;;;;1.93;1.63;;;27.00;99.90;;;;;;4951958;28;20458;-78
2022/09/05 13:55:18;;;;;;;1.87;1.60;;;27.00;99.90;;;;;;4941679;28;20839;-79
2022/09/05 13:57:51;;;;;;;1.60;1.50;;;27.00;99.90;;;;;;4941304;28;21051;-79
2022/09/05 14:01:23;;;;;;;1.40;1.27;;;27.00;99.90;;;;;;4943988;28;20524;-78
2022/09/05 14:04:23;;;;;;;1.00;1.00;;;27.00;99.90;;;;;;4890990;29;20506;-78
2022/09/05 14:07:49;;;;;;;1.40;1.30;;;27.00;99.90;;;;;;4942871;28;21059;-80
2022/09/05 14:10:50;;;;;;;1.33;1.23;;;27.00;99.90;;;;;;4954582;28;20469;-81
2022/09/05 14:13:23;;;;;;;1.50;1.40;;;27.00;99.90;;;;;;4951776;28;20468;-77
2022/09/05 14:15:55;;;;;;;1.30;1.20;;;27.00;99.90;;;;;;4941383;28;20465;-79
2022/09/05 14:18:29;;;;;;;1.60;1.50;;;27.00;99.90;;;;;;4945625;28;20998;-79
2022/09/05 14:21:16;;;;;;;1.47;1.37;;;27.10;99.90;;;;;;4947300;28;20680;-78
2022/09/05 14:23:52;;;;;;;1.90;1.80;;;27.10;99.90;;;;;;4945243;28;20913;-78
2022/09/05 14:26:28;;;;;;;1.70;1.60;;;27.10;99.90;;;;;;4942008;28;20495;-79
2022/09/05 14:29:03;;;;;;;1.40;1.13;;;27.20;99.90;;;;;;4943903;28;20460;-81
2022/09/05 14:32:21;;;;;;;1.50;1.40;;;27.10;99.90;;;;;;4947069;28;20954;-81
2022/09/05 14:35:12;;;;;;;1.30;1.20;;;27.10;99.90;;;;;;4949780;28;20491;-81
2022/09/05 14:38:05;;;;;;;1.33;1.00;;;27.10;99.90;;;;;;4941473;28;21006;-81
2022/09/05 14:41:34;;;;;;;1.33;1.30;;;27.00;99.90;;;;;;4948609;28;20462;-80